createdAt,value
2019-04-20T00:00:39.735Z,95715.82
2019-04-20T00:03:07.661Z,95715.82
2019-04-20T00:05:37.381Z,95706.83
2019-04-20T00:08:12.742Z,95710.09
2019-04-20T00:10:48.644Z,95701.75
2019-04-20T00:13:21.579Z,95704.42
2019-04-20T00:15:41.289Z,95718.73
2019-04-20T00:18:12.202Z,95720.64
2019-04-20T00:20:43.967Z,95712.55
2019-04-20T00:23:22.879Z,95724.87
2019-04-20T00:26:14.814Z,95725.59
2019-04-20T00:28:55.921Z,95730.14
2019-04-20T00:31:26.716Z,95746.98
2019-04-20T00:33:54.979Z,95749.70
2019-04-20T00:36:13.859Z,95764.52
2019-04-20T00:38:50.934Z,95755.16
2019-04-20T00:41:17.649Z,95750.02
2019-04-20T00:43:47.190Z,95749.67
2019-04-20T00:46:25.844Z,95744.05
2019-04-20T00:48:55.854Z,95741.69
2019-04-20T00:51:35.396Z,95743.75
2019-04-20T00:53:56.825Z,95747.06
2019-04-20T00:56:24.363Z,95744.41
2019-04-20T00:59:09.246Z,95734.88
2019-04-20T01:01:50.169Z,95738.44
2019-04-20T01:04:15.237Z,95740.23
2019-04-20T01:06:47.744Z,95731.84
2019-04-20T01:09:20.308Z,95733.33
2019-04-20T01:11:51.319Z,95735.59
2019-04-20T01:14:27.329Z,95724.95
2019-04-20T01:16:58.850Z,95723.84
2019-04-20T01:19:23.766Z,95727.16
2019-04-20T01:21:59.710Z,95721.78
2019-04-20T01:24:33.082Z,95728.88
2019-04-20T01:27:00.413Z,95714.08
2019-04-20T01:29:36.951Z,95719.59
2019-04-20T01:32:12.764Z,95719.94
2019-04-20T01:34:41.719Z,95722.72
2019-04-20T01:37:17.967Z,95725.92
2019-04-20T01:39:37.175Z,95729.81
2019-04-20T01:42:04.580Z,95727.54
2019-04-20T01:44:41.299Z,95720.28
2019-04-20T01:47:08.249Z,95726.53
2019-04-20T01:49:39.922Z,95726.41
2019-04-20T01:52:18.678Z,95727.52
2019-04-20T01:54:59.411Z,95726.06
2019-04-20T01:57:33.118Z,95724.63
2019-04-20T02:00:17.458Z,95730.55
2019-04-20T02:02:48.742Z,95722.53
2019-04-20T02:05:21.422Z,95727.50
2019-04-20T02:07:49.342Z,95715.16
2019-04-20T02:10:21.884Z,95716.06
2019-04-20T02:12:55.653Z,95709.39
2019-04-20T02:15:30.986Z,95720.59
2019-04-20T02:18:07.502Z,95711.45
2019-04-20T02:20:44.301Z,95708.31
2019-04-20T02:23:10.696Z,95707.23
2019-04-20T02:25:26.995Z,95722.39
2019-04-20T02:28:14.726Z,95719.03
2019-04-20T02:31:04.977Z,95730.41
2019-04-20T02:36:27.601Z,95725.45
2019-04-20T02:39:21.538Z,95721.61
2019-04-20T02:44:18.033Z,95708.65
2019-04-20T02:46:42.729Z,95711.66
2019-04-20T02:49:19.759Z,95711.03
2019-04-20T02:51:46.628Z,95710.37
2019-04-20T02:56:53.160Z,95703.63
2019-04-20T03:01:36.933Z,95702.56
2019-04-20T03:03:52.644Z,95715.55
2019-04-20T03:06:32.658Z,95712.98
2019-04-20T03:09:17.404Z,95709.78
2019-04-20T03:11:54.752Z,95701.30
2019-04-20T03:14:10.661Z,95720.05
2019-04-20T03:16:45.481Z,95709.77
2019-04-20T03:19:14.269Z,95716.51
2019-04-20T03:21:54.159Z,95712.80
2019-04-20T03:24:27.035Z,95707.83
2019-04-20T03:26:56.014Z,95713.30
2019-04-20T03:29:24.529Z,95709.77
2019-04-20T03:32:27.921Z,95703.54
2019-04-20T03:34:54.990Z,95726.11
2019-04-20T03:37:07.115Z,95720.33
2019-04-20T03:39:33.525Z,95722.11
2019-04-20T03:41:48.759Z,95728.99
2019-04-20T03:44:20.898Z,95728.84
2019-04-20T03:46:53.080Z,95732.52
2019-04-20T03:49:42.331Z,95734.78
2019-04-20T03:52:28.852Z,95731.55
2019-04-20T03:55:16.424Z,95726.13
2019-04-20T03:57:59.960Z,95733.81
2019-04-20T04:00:31.899Z,95734.45
2019-04-20T04:03:12.444Z,95731.23
2019-04-20T04:05:42.019Z,95721.62
2019-04-20T04:08:09.450Z,95734.63
2019-04-20T04:10:41.250Z,95731.88
2019-04-20T04:13:07.639Z,95730.23
2019-04-20T04:15:44.283Z,95731.86
2019-04-20T04:18:16.899Z,95746.14
2019-04-20T04:20:48.528Z,95751.59
2019-04-20T04:23:32.716Z,95749.69
2019-04-20T04:26:00.705Z,95744.39
2019-04-20T04:28:31.101Z,95755.59
2019-04-20T04:31:09.486Z,95748.23
2019-04-20T04:33:53.202Z,95750.79
2019-04-20T04:36:07.119Z,95754.16
2019-04-20T04:38:43.508Z,95748.40
2019-04-20T04:43:40.194Z,95757.51
2019-04-20T04:45:55.513Z,95747.69
2019-04-20T04:48:32.114Z,95752.66
2019-04-20T04:51:03.182Z,95751.05
2019-04-20T04:53:42.902Z,95749.39
2019-04-20T04:57:24.302Z,95753.28
2019-04-20T04:59:55.203Z,95746.17
2019-04-20T05:02:33.590Z,95753.79
2019-04-20T05:05:25.453Z,95754.15
2019-04-20T05:07:49.604Z,95753.98
2019-04-20T05:10:09.829Z,95745.34
2019-04-20T05:12:41.007Z,95738.19
2019-04-20T05:15:21.203Z,95748.63
2019-04-20T05:18:09.603Z,95739.19
2019-04-20T05:20:47.520Z,95736.80
2019-04-20T05:23:12.575Z,95731.11
2019-04-20T05:25:59.603Z,95737.12
2019-04-20T05:28:30.613Z,95741.57
2019-04-20T05:36:23.543Z,95751.91
2019-04-20T05:39:02.520Z,95747.33
2019-04-20T05:41:29.827Z,95756.53
2019-04-20T05:44:03.574Z,95760.06
2019-04-20T05:46:30.868Z,95765.25
2019-04-20T05:49:10.044Z,95762.48
2019-04-20T05:51:40.721Z,95758.47
2019-04-20T05:54:17.917Z,95760.05
2019-04-20T05:57:00.256Z,95753.12
2019-04-20T05:59:11.740Z,95756.29
2019-04-20T06:04:18.584Z,95756.64
2019-04-20T06:06:49.597Z,95751.91
2019-04-20T06:09:24.018Z,95757.31
2019-04-20T06:12:07.501Z,95760.03
2019-04-20T06:14:15.506Z,95739.81
2019-04-20T06:17:04.231Z,95755.05
2019-04-20T06:19:35.891Z,95755.47
2019-04-20T06:22:31.012Z,95734.33
2019-04-20T06:24:52.609Z,95771.20
2019-04-20T06:27:17.952Z,95763.51
2019-04-20T06:29:46.021Z,95757.88
2019-04-20T06:32:28.778Z,95761.12
2019-04-20T06:34:47.851Z,95748.77
2019-04-20T06:37:19.389Z,95750.02
2019-04-20T06:39:58.838Z,95762.61
2019-04-20T06:42:20.243Z,95750.50
2019-04-20T06:45:02.096Z,95750.00
2019-04-20T06:47:31.009Z,95743.66
2019-04-20T06:49:56.479Z,95755.69
2019-04-20T06:52:27.544Z,95773.05
2019-04-20T06:55:06.925Z,95766.96
2019-04-20T07:00:27.623Z,95784.13
2019-04-20T07:12:51.792Z,95781.51
2019-04-20T07:15:22.839Z,95768.56
2019-04-20T07:18:04.927Z,95748.28
2019-04-20T07:20:42.733Z,95766.88
2019-04-20T07:23:18.653Z,95783.74
2019-04-20T07:25:43.355Z,95798.85
2019-04-20T07:28:12.623Z,95797.00
2019-04-20T07:30:41.837Z,95784.88
2019-04-20T07:33:18.326Z,95778.63
2019-04-20T07:35:44.844Z,95788.10
2019-04-20T07:40:44.065Z,95809.58
2019-04-20T07:43:14.952Z,95810.06
2019-04-20T07:45:48.776Z,95812.23
2019-04-20T07:48:20.639Z,95813.19
2019-04-20T07:50:44.883Z,95813.72
2019-04-20T07:53:22.853Z,95810.64
2019-04-20T07:55:59.323Z,95806.52
2019-04-20T07:58:19.771Z,95811.69
2019-04-20T08:01:07.620Z,95815.60
2019-04-20T08:03:50.435Z,95807.19
2019-04-20T08:06:02.386Z,95809.05
2019-04-20T08:08:40.270Z,95807.81
2019-04-20T08:11:13.816Z,95817.82
2019-04-20T08:16:27.749Z,95816.84
2019-04-20T08:18:51.353Z,95819.48
2019-04-20T08:21:23.403Z,95826.06
2019-04-20T08:23:49.001Z,95824.39
2019-04-20T08:26:10.874Z,95818.40
2019-04-20T08:29:01.401Z,95814.77
2019-04-20T08:32:07.710Z,95811.02
2019-04-20T08:34:46.169Z,95817.14
2019-04-20T08:37:05.932Z,95820.67
2019-04-20T08:39:51.055Z,95812.14
2019-04-20T08:42:17.450Z,95816.08
2019-04-20T08:45:00.157Z,95812.86
2019-04-20T08:47:30.582Z,95800.81
2019-04-20T08:55:18.051Z,95816.12
2019-04-20T08:57:29.268Z,95821.17
2019-04-20T09:00:02.535Z,95814.48
2019-04-20T09:02:32.686Z,95821.77
2019-04-20T09:05:09.076Z,95817.48
2019-04-20T09:07:47.803Z,95799.09
2019-04-20T09:12:59.724Z,95811.81
2019-04-20T09:15:14.759Z,95806.81
2019-04-20T09:17:52.329Z,95815.99
2019-04-20T09:20:31.826Z,95820.43
2019-04-20T09:23:12.907Z,95819.39
2019-04-20T09:28:11.603Z,95802.57
2019-04-20T09:30:48.146Z,95803.31
2019-04-20T09:33:44.164Z,95813.56
2019-04-20T09:36:14.102Z,95800.95
2019-04-20T09:39:00.101Z,95803.99
2019-04-20T09:41:58.969Z,95797.45
2019-04-20T09:44:11.032Z,95795.18
2019-04-20T09:46:47.341Z,95796.16
2019-04-20T09:49:20.054Z,95792.14
2019-04-20T09:51:57.472Z,95795.41
2019-04-20T09:54:32.624Z,95778.77
2019-04-20T09:57:08.929Z,95775.34
2019-04-20T09:59:40.029Z,95787.67
2019-04-20T10:02:01.211Z,95785.00
2019-04-20T10:04:21.656Z,95787.58
2019-04-20T10:06:51.812Z,95786.13
2019-04-20T10:09:30.156Z,95794.16
2019-04-20T10:11:53.230Z,95791.97
2019-04-20T10:14:22.745Z,95796.32
2019-04-20T10:16:53.705Z,95795.62
2019-04-20T10:19:48.344Z,95789.30
2019-04-20T10:22:20.993Z,95795.47
2019-04-20T10:24:52.194Z,95800.04
2019-04-20T10:27:28.401Z,95808.02
2019-04-20T10:30:01.091Z,95799.88
2019-04-20T10:32:34.187Z,95785.39
2019-04-20T10:35:02.378Z,95779.61
2019-04-20T10:37:35.842Z,95787.08
2019-04-20T10:40:06.839Z,95797.34
2019-04-20T10:42:36.835Z,95801.24
2019-04-20T10:45:08.424Z,95801.52
2019-04-20T10:47:38.961Z,95808.44
2019-04-20T10:50:11.329Z,95801.87
2019-04-20T10:52:41.610Z,95807.27
2019-04-20T10:55:14.691Z,95808.70
2019-04-20T10:57:43.893Z,95790.22
2019-04-20T11:00:15.582Z,95767.36
2019-04-20T11:02:47.201Z,95792.28
2019-04-20T11:05:16.978Z,95791.46
2019-04-20T11:07:46.768Z,95809.52
2019-04-20T11:10:24.996Z,95783.80
2019-04-20T11:12:48.433Z,95788.69
2019-04-20T11:15:18.685Z,95801.44
2019-04-20T11:17:49.488Z,95802.83
2019-04-20T11:20:19.256Z,95811.56
2019-04-20T11:22:48.797Z,95791.25
2019-04-20T11:25:18.432Z,95808.12
2019-04-20T11:27:48.178Z,95790.23
2019-04-20T11:30:18.210Z,95794.95
2019-04-20T11:32:48.433Z,95808.19
2019-04-20T11:35:25.488Z,95821.55
2019-04-20T11:37:49.540Z,95826.11
2019-04-20T11:40:19.209Z,95807.20
2019-04-20T11:42:49.894Z,95807.30
2019-04-20T11:45:20.520Z,95813.88
2019-04-20T11:47:51.566Z,95816.20
2019-04-20T11:50:21.943Z,95809.67
2019-04-20T11:52:51.672Z,95802.15
2019-04-20T11:55:22.460Z,95812.52
2019-04-20T11:57:52.004Z,95805.32
2019-04-20T12:00:43.219Z,95807.20
2019-04-20T12:03:16.069Z,95805.91
2019-04-20T12:05:45.948Z,95809.61
2019-04-20T12:08:13.191Z,95806.69
2019-04-20T12:10:43.854Z,95805.53
2019-04-20T12:13:14.793Z,95803.22
2019-04-20T12:15:45.512Z,95794.77
2019-04-20T12:18:15.721Z,95788.66
2019-04-20T12:20:45.310Z,95808.41
2019-04-20T12:23:16.088Z,95809.11
2019-04-20T12:25:46.273Z,95802.33
2019-04-20T12:28:17.838Z,95807.59
2019-04-20T12:30:48.450Z,95808.65
2019-04-20T12:33:18.096Z,95808.43
2019-04-20T12:35:48.077Z,95811.12
2019-04-20T12:38:19.119Z,95806.22
2019-04-20T12:40:50.240Z,95805.62
2019-04-20T12:43:20.407Z,95793.13
2019-04-20T12:45:50.088Z,95787.06
2019-04-20T12:48:20.033Z,95785.83
2019-04-20T12:50:49.972Z,95782.35
2019-04-20T12:53:20.467Z,95759.11
2019-04-20T12:55:52.689Z,95772.16
2019-04-20T12:58:22.873Z,95780.09
2019-04-20T13:00:54.357Z,95786.64
2019-04-20T13:03:25.496Z,95795.44
2019-04-20T13:05:56.125Z,95795.94
2019-04-20T13:08:33.697Z,95794.84
2019-04-20T13:11:02.543Z,95789.77
2019-04-20T13:13:38.667Z,95788.31
2019-04-20T13:16:14.255Z,95788.09
2019-04-20T13:18:49.115Z,95793.56
2019-04-20T13:21:19.152Z,95795.27
2019-04-20T13:23:51.142Z,95790.18
2019-04-20T13:26:21.054Z,95784.54
2019-04-20T13:28:50.991Z,95779.89
2019-04-20T13:31:21.960Z,95785.78
2019-04-20T13:33:51.754Z,95790.84
2019-04-20T13:36:22.055Z,95787.17
2019-04-20T13:38:54.259Z,95803.14
2019-04-20T13:41:24.237Z,95797.73
2019-04-20T13:43:57.810Z,95813.50
2019-04-20T13:46:27.143Z,95815.70
2019-04-20T13:48:57.402Z,95819.56
2019-04-20T13:51:26.903Z,95810.02
2019-04-20T13:53:57.282Z,95814.64
2019-04-20T13:56:28.124Z,95808.82
2019-04-20T13:58:59.312Z,95815.46
2019-04-20T14:01:41.181Z,95817.30
2019-04-20T14:04:16.750Z,95811.95
2019-04-20T14:06:48.534Z,95805.50
2019-04-20T14:09:19.353Z,95815.47
2019-04-20T14:11:49.479Z,95801.80
2019-04-20T14:14:19.475Z,95798.44
2019-04-20T14:16:49.231Z,95808.78
2019-04-20T14:19:21.018Z,95801.01
2019-04-20T14:21:52.177Z,95791.55
2019-04-20T14:24:22.236Z,95790.53
2019-04-20T14:26:52.852Z,95797.12
2019-04-20T14:29:23.109Z,95794.72
2019-04-20T14:31:53.046Z,95787.18
2019-04-20T14:34:22.829Z,95795.72
2019-04-20T14:36:52.996Z,95793.39
2019-04-20T14:39:22.711Z,95797.07
2019-04-20T14:41:52.197Z,95796.38
2019-04-20T14:44:22.041Z,95800.49
2019-04-20T14:46:51.781Z,95798.30
2019-04-20T14:49:21.262Z,95795.08
2019-04-20T14:51:50.762Z,95787.89
2019-04-20T14:54:21.357Z,95784.06
2019-04-20T14:56:51.748Z,95787.21
2019-04-20T14:59:29.581Z,95784.21
2019-04-20T15:02:00.848Z,95788.09
2019-04-20T15:04:32.065Z,95789.39
2019-04-20T15:07:02.485Z,95797.95
2019-04-20T15:09:35.662Z,95792.52
2019-04-20T15:12:05.009Z,95792.49
2019-04-20T15:14:34.736Z,95794.82
2019-04-20T15:17:04.835Z,95795.25
2019-04-20T15:19:36.143Z,95806.78
2019-04-20T15:22:23.475Z,95802.37
2019-04-20T15:24:53.527Z,95798.64
2019-04-20T15:27:24.981Z,95814.08
2019-04-20T15:29:55.887Z,95806.34
2019-04-20T15:32:27.022Z,95806.72
2019-04-20T15:34:57.140Z,95801.69
2019-04-20T15:37:27.056Z,95801.02
2019-04-20T15:39:57.130Z,95802.27
2019-04-20T15:42:27.639Z,95804.09
2019-04-20T15:44:57.744Z,95800.33
2019-04-20T15:47:27.953Z,95800.12
2019-04-20T15:49:58.108Z,95792.39
2019-04-20T15:52:36.272Z,95792.27
2019-04-20T15:55:01.929Z,95787.50
2019-04-20T15:57:31.676Z,95796.31
2019-04-20T16:00:02.685Z,95808.81
2019-04-20T16:02:51.507Z,95809.06
2019-04-20T16:05:41.008Z,95807.22
2019-04-20T16:08:25.879Z,95802.41
2019-04-20T16:10:57.225Z,95810.39
2019-04-20T16:13:33.843Z,95815.63
2019-04-20T16:15:58.812Z,95820.46
2019-04-20T16:18:28.468Z,95814.09
2019-04-20T16:21:06.239Z,95815.91
2019-04-20T16:23:32.364Z,95809.89
2019-04-20T16:26:11.436Z,95814.75
2019-04-20T16:28:41.729Z,95813.20
2019-04-20T16:31:13.326Z,95816.66
2019-04-20T16:33:42.824Z,95822.44
2019-04-20T16:36:16.538Z,95829.53
2019-04-20T16:38:47.631Z,95825.03
2019-04-20T16:41:18.199Z,95830.16
2019-04-20T16:43:48.617Z,95831.81
2019-04-20T16:46:22.504Z,95831.34
2019-04-20T16:48:51.208Z,95834.45
2019-04-20T16:51:20.977Z,95831.54
2019-04-20T16:53:51.849Z,95843.77
2019-04-20T16:56:22.649Z,95837.23
2019-04-20T16:58:54.734Z,95833.08
2019-04-20T17:01:23.586Z,95842.09
2019-04-20T17:04:02.104Z,95843.80
2019-04-20T17:06:26.305Z,95840.05
2019-04-20T17:08:56.606Z,95837.47
2019-04-20T17:11:27.625Z,95847.33
2019-04-20T17:13:59.911Z,95847.52
2019-04-20T17:16:28.691Z,95851.26
2019-04-20T17:18:59.518Z,95860.30
2019-04-20T17:21:31.916Z,95853.35
2019-04-20T17:24:01.623Z,95853.67
2019-04-20T17:26:39.127Z,95864.19
2019-04-20T17:29:13.783Z,95867.76
2019-04-20T17:31:51.325Z,95858.14
2019-04-20T17:34:36.160Z,95861.41
2019-04-20T17:36:52.753Z,95868.56
2019-04-20T17:39:33.977Z,95867.69
2019-04-20T17:42:12.914Z,95872.23
2019-04-20T17:44:42.618Z,95872.12
2019-04-20T17:47:11.530Z,95881.81
2019-04-20T17:49:42.188Z,95892.44
2019-04-20T17:52:26.479Z,95892.11
2019-04-20T17:54:40.420Z,95892.45
2019-04-20T17:57:11.069Z,95896.30
2019-04-20T17:59:47.097Z,95900.19
2019-04-20T18:02:53.423Z,95905.16
2019-04-20T18:05:29.203Z,95912.74
2019-04-20T18:08:04.077Z,95915.00
2019-04-20T18:10:29.027Z,95918.84
2019-04-20T18:12:49.778Z,95922.84
2019-04-20T18:15:36.784Z,95927.17
2019-04-20T18:18:20.192Z,95927.68
2019-04-20T18:20:37.030Z,95930.55
2019-04-20T18:23:10.773Z,95936.17
2019-04-20T18:26:04.849Z,95930.70
2019-04-20T18:28:32.702Z,95935.05
2019-04-20T18:30:55.099Z,95949.17
2019-04-20T18:33:24.957Z,95939.37
2019-04-20T18:35:54.138Z,95948.04
2019-04-20T18:38:24.160Z,95944.18
2019-04-20T18:41:01.211Z,95945.63
2019-04-20T18:43:29.588Z,95948.61
2019-04-20T18:46:20.323Z,95960.11
2019-04-20T18:48:50.965Z,95966.84
2019-04-20T18:51:03.807Z,95954.03
2019-04-20T18:53:40.746Z,95967.50
2019-04-20T18:56:06.418Z,95976.64
2019-04-20T18:58:37.532Z,95966.05
2019-04-20T19:01:07.583Z,95979.97
2019-04-20T19:03:41.918Z,95980.98
2019-04-20T19:06:09.529Z,95980.48
2019-04-20T19:08:46.365Z,95991.53
2019-04-20T19:11:16.509Z,95979.15
2019-04-20T19:13:47.723Z,95991.95
2019-04-20T19:16:32.559Z,95988.56
2019-04-20T19:19:09.419Z,95981.67
2019-04-20T19:21:31.088Z,95997.25
2019-04-20T19:24:07.628Z,95994.41
2019-04-20T19:26:34.306Z,95983.38
2019-04-20T19:29:15.724Z,95983.70
2019-04-20T19:31:52.694Z,95982.17
2019-04-20T19:34:26.598Z,95990.13
2019-04-20T19:36:47.750Z,95988.68
2019-04-20T19:39:28.701Z,95981.48
2019-04-20T19:41:50.565Z,95986.32
2019-04-20T19:44:24.987Z,95987.59
2019-04-20T19:47:10.595Z,95980.08
2019-04-20T19:49:36.015Z,95983.45
2019-04-20T19:52:25.504Z,95995.36
2019-04-20T19:54:46.772Z,95991.66
2019-04-20T19:57:11.840Z,95995.36
2019-04-20T19:59:36.276Z,96007.34
2019-04-20T20:01:58.361Z,95992.44
2019-04-20T20:04:32.172Z,95988.23
2019-04-20T20:07:03.991Z,95992.66
2019-04-20T20:09:32.431Z,95988.25
2019-04-20T20:12:04.893Z,95989.87
2019-04-20T20:14:39.071Z,95991.45
2019-04-20T20:17:27.372Z,95994.89
2019-04-20T20:20:04.035Z,95987.86
2019-04-20T20:22:19.362Z,96003.68
2019-04-20T20:24:38.889Z,95997.38
2019-04-20T20:27:22.990Z,96006.33
2019-04-20T20:29:52.135Z,96001.13
2019-04-20T20:32:20.167Z,95993.75
2019-04-20T20:34:45.463Z,96006.84
2019-04-20T20:37:24.206Z,96011.20
2019-04-20T20:39:53.819Z,96003.86
2019-04-20T20:42:30.886Z,96009.83
2019-04-20T20:44:54.978Z,96006.30
2019-04-20T20:47:41.780Z,96009.09
2019-04-20T20:50:14.741Z,96011.72
2019-04-20T20:52:39.379Z,96018.05
2019-04-20T20:55:03.800Z,96001.36
2019-04-20T20:57:37.066Z,96005.44
2019-04-20T21:00:04.655Z,96006.84
2019-04-20T21:02:38.986Z,96000.36
2019-04-20T21:04:59.614Z,96002.17
2019-04-20T21:07:29.297Z,96010.48
2019-04-20T21:09:58.857Z,96009.14
2019-04-20T21:12:28.855Z,96007.23
2019-04-20T21:15:07.006Z,96007.61
2019-04-20T21:17:47.061Z,95999.42
2019-04-20T21:20:19.128Z,96016.46
2019-04-20T21:22:57.447Z,96012.77
2019-04-20T21:25:10.834Z,96009.94
2019-04-20T21:27:44.593Z,96009.35
2019-04-20T21:30:24.052Z,96023.38
2019-04-20T21:32:54.483Z,96014.52
2019-04-20T21:35:23.863Z,96022.67
2019-04-20T21:38:04.470Z,96028.11
2019-04-20T21:40:36.253Z,96020.83
2019-04-20T21:43:06.962Z,96028.08
2019-04-20T21:45:37.564Z,96020.84
2019-04-20T21:48:09.810Z,96023.67
2019-04-20T21:50:58.388Z,96019.22
2019-04-20T21:53:17.785Z,96017.81
2019-04-20T21:55:41.901Z,96023.79
2019-04-20T21:58:12.023Z,96029.44
2019-04-20T22:01:07.144Z,96024.70
2019-04-20T22:03:26.747Z,96025.72
2019-04-20T22:06:06.610Z,96025.06
2019-04-20T22:08:40.469Z,96016.33
2019-04-20T22:11:11.473Z,96023.33
2019-04-20T22:13:43.877Z,96026.80
2019-04-20T22:16:15.194Z,96026.75
2019-04-20T22:18:54.312Z,96019.67
2019-04-20T22:21:26.509Z,96018.98
2019-04-20T22:24:05.760Z,96022.73
2019-04-20T22:26:30.978Z,96021.01
2019-04-20T22:28:54.204Z,96022.68
2019-04-20T22:31:24.469Z,96017.88
2019-04-20T22:33:54.485Z,96017.88
2019-04-20T22:36:35.546Z,96015.33
2019-04-20T22:39:25.715Z,96012.38
2019-04-20T22:41:59.200Z,96001.77
2019-04-20T22:44:26.703Z,96010.88
2019-04-20T22:46:56.343Z,96013.23
2019-04-20T22:49:42.011Z,96005.44
2019-04-20T22:52:06.348Z,96013.69
2019-04-20T22:54:46.825Z,96014.23
2019-04-20T22:57:11.805Z,96014.85
2019-04-20T22:59:41.819Z,96004.72
2019-04-20T23:02:06.132Z,96000.14
2019-04-20T23:04:35.208Z,96002.78
2019-04-20T23:07:05.086Z,96000.31
2019-04-20T23:09:39.467Z,95999.45
2019-04-20T23:12:10.020Z,95990.42
2019-04-20T23:14:38.354Z,95986.77
2019-04-20T23:17:08.530Z,95989.38
2019-04-20T23:19:46.600Z,95992.33
2019-04-20T23:22:13.354Z,95980.95
2019-04-20T23:24:41.593Z,95971.75
2019-04-20T23:27:18.168Z,95974.12
2019-04-20T23:29:43.656Z,95970.82
2019-04-20T23:32:15.680Z,95968.73
2019-04-20T23:34:49.082Z,95963.41
2019-04-20T23:37:24.582Z,95967.73
2019-04-20T23:39:51.323Z,95979.44
2019-04-20T23:42:28.042Z,95966.72
2019-04-20T23:45:13.642Z,95952.46
2019-04-20T23:47:58.856Z,95969.41
2019-04-20T23:50:40.824Z,95975.77
2019-04-20T23:53:14.074Z,95970.35
2019-04-20T23:55:29.769Z,95977.19
2019-04-20T23:58:04.948Z,95964.98
